createdAt,value
2022-12-29T00:00:10.482Z,3.31
2022-12-29T00:02:40.201Z,3.68
2022-12-29T00:05:08.124Z,3.61
2022-12-29T00:07:35.610Z,3.80
2022-12-29T00:10:03.192Z,3.92
2022-12-29T00:12:50.778Z,3.91
2022-12-29T00:15:37.212Z,3.81
2022-12-29T00:18:04.951Z,3.62
2022-12-29T00:20:53.942Z,3.85
2022-12-29T00:23:40.386Z,3.67
2022-12-29T00:26:36.172Z,3.64
2022-12-29T00:29:22.477Z,3.82
2022-12-29T00:32:08.433Z,3.75
2022-12-29T00:34:54.716Z,3.73
2022-12-29T00:37:42.025Z,3.76
2022-12-29T00:40:28.369Z,3.86
2022-12-29T00:43:14.448Z,3.50
2022-12-29T00:45:42.809Z,3.77
2022-12-29T00:48:10.307Z,3.80
2022-12-29T00:50:37.667Z,3.55
2022-12-29T00:53:05.286Z,3.44
2022-12-29T00:55:32.651Z,3.63
2022-12-29T00:58:01.004Z,3.67
2022-12-29T01:00:28.714Z,3.74
2022-12-29T01:02:57.041Z,3.55
2022-12-29T01:05:24.491Z,3.75
2022-12-29T01:07:52.143Z,3.78
2022-12-29T01:10:19.508Z,3.75
2022-12-29T01:12:48.352Z,3.58
2022-12-29T01:15:16.187Z,3.72
2022-12-29T01:17:43.632Z,3.53
2022-12-29T01:20:11.807Z,3.59
2022-12-29T01:22:39.667Z,3.32
2022-12-29T01:25:07.550Z,3.56
2022-12-29T01:27:35.634Z,3.14
2022-12-29T01:30:03.588Z,3.45
2022-12-29T01:32:32.670Z,3.50
2022-12-29T01:35:00.048Z,3.64
2022-12-29T01:37:27.730Z,3.48
2022-12-29T01:39:55.173Z,3.57
2022-12-29T01:42:24.340Z,3.50
2022-12-29T01:44:55.970Z,3.58
2022-12-29T01:47:34.068Z,3.64
2022-12-29T01:50:12.373Z,2.92
2022-12-29T01:52:42.498Z,3.37
2022-12-29T01:55:10.240Z,3.55
2022-12-29T01:57:39.104Z,3.73
2022-12-29T02:00:09.489Z,3.37
2022-12-29T02:02:40.703Z,3.34
2022-12-29T02:05:12.296Z,3.20
2022-12-29T02:07:39.670Z,3.30
2022-12-29T02:10:07.371Z,3.23
2022-12-29T02:12:35.003Z,3.27
2022-12-29T02:15:02.980Z,2.99
2022-12-29T02:17:45.660Z,3.18
2022-12-29T02:20:42.663Z,3.47
2022-12-29T02:23:33.089Z,3.29
2022-12-29T02:26:34.794Z,3.34
2022-12-29T02:29:22.405Z,3.43
2022-12-29T02:32:00.210Z,3.51
2022-12-29T02:34:39.633Z,3.23
2022-12-29T02:37:28.180Z,3.42
2022-12-29T02:40:05.526Z,3.42
2022-12-29T02:43:04.360Z,3.33
2022-12-29T02:45:36.254Z,3.37
2022-12-29T02:48:17.867Z,2.91
2022-12-29T02:51:03.822Z,3.22
2022-12-29T02:53:51.650Z,3.32
2022-12-29T02:56:19.517Z,2.66
2022-12-29T02:58:47.263Z,2.81
2022-12-29T03:01:28.340Z,2.91
2022-12-29T03:04:14.946Z,3.11
2022-12-29T03:06:54.260Z,3.23
2022-12-29T03:09:31.593Z,3.45
2022-12-29T03:12:17.273Z,3.51
2022-12-29T03:15:18.079Z,3.04
2022-12-29T03:18:10.161Z,3.01
2022-12-29T03:20:53.015Z,3.45
2022-12-29T03:23:20.423Z,2.73
2022-12-29T03:25:49.466Z,3.00
2022-12-29T03:28:40.178Z,2.29
2022-12-29T03:31:08.098Z,2.63
2022-12-29T03:33:35.722Z,2.81
2022-12-29T03:36:04.939Z,2.53
2022-12-29T03:38:51.306Z,2.96
2022-12-29T03:41:21.826Z,3.14
2022-12-29T03:43:49.482Z,2.57
2022-12-29T03:46:16.892Z,2.72
2022-12-29T03:48:45.791Z,3.17
2022-12-29T03:51:14.012Z,3.32
2022-12-29T03:53:42.302Z,3.01
2022-12-29T03:56:09.676Z,3.22
2022-12-29T03:58:38.033Z,3.53
2022-12-29T04:01:05.847Z,3.55
2022-12-29T04:03:34.010Z,2.82
2022-12-29T04:06:02.444Z,3.37
2022-12-29T04:08:30.368Z,3.54
2022-12-29T04:10:59.357Z,3.47
2022-12-29T04:13:27.759Z,3.64
2022-12-29T04:15:55.297Z,3.43
2022-12-29T04:18:23.184Z,3.24
2022-12-29T04:21:06.565Z,3.22
2022-12-29T04:23:37.239Z,3.44
2022-12-29T04:26:05.094Z,3.40
2022-12-29T04:28:33.038Z,3.42
2022-12-29T04:31:01.546Z,3.54
2022-12-29T04:33:29.361Z,3.37
2022-12-29T04:35:56.880Z,3.49
2022-12-29T04:38:25.063Z,3.36
2022-12-29T04:40:52.671Z,3.49
2022-12-29T04:43:22.685Z,3.52
2022-12-29T04:45:51.308Z,3.27
2022-12-29T04:48:19.919Z,3.60
2022-12-29T04:50:48.798Z,3.04
2022-12-29T04:53:17.356Z,3.32
2022-12-29T04:55:44.966Z,3.15
2022-12-29T04:58:16.316Z,3.24
2022-12-29T05:00:48.528Z,3.20
2022-12-29T05:03:16.096Z,3.26
2022-12-29T05:05:45.975Z,2.74
2022-12-29T05:08:13.736Z,1.92
2022-12-29T05:10:45.599Z,2.97
2022-12-29T05:13:13.140Z,3.52
2022-12-29T05:15:40.992Z,2.67
2022-12-29T05:18:17.664Z,3.18
2022-12-29T05:20:46.094Z,3.24
2022-12-29T05:23:13.720Z,2.90
2022-12-29T05:25:41.614Z,2.66
2022-12-29T05:28:09.790Z,2.84
2022-12-29T05:30:38.270Z,3.30
2022-12-29T05:33:07.474Z,3.46
2022-12-29T05:35:35.609Z,3.50
2022-12-29T05:38:03.110Z,2.36
2022-12-29T05:40:31.162Z,3.06
2022-12-29T05:42:59.398Z,2.96
2022-12-29T05:45:28.045Z,3.15
2022-12-29T05:47:55.639Z,2.24
2022-12-29T05:50:23.397Z,2.73
2022-12-29T05:52:56.874Z,2.73
2022-12-29T05:55:24.551Z,2.19
2022-12-29T05:57:52.148Z,1.48
2022-12-29T06:00:19.638Z,2.12
2022-12-29T06:02:47.741Z,2.73
2022-12-29T06:05:16.355Z,2.89
2022-12-29T06:07:45.726Z,3.29
2022-12-29T06:10:15.093Z,3.50
2022-12-29T06:12:42.968Z,3.29
2022-12-29T06:15:11.125Z,3.30
2022-12-29T06:17:40.488Z,3.04
2022-12-29T06:20:08.724Z,3.09
2022-12-29T06:22:36.444Z,2.11
2022-12-29T06:25:05.426Z,2.45
2022-12-29T06:27:33.706Z,2.15
2022-12-29T06:30:01.454Z,2.98
2022-12-29T06:32:29.627Z,2.05
2022-12-29T06:34:57.297Z,2.42
2022-12-29T06:37:25.171Z,2.71
2022-12-29T06:39:52.819Z,2.73
2022-12-29T06:42:20.261Z,3.21
2022-12-29T06:44:48.177Z,2.22
2022-12-29T06:47:15.806Z,2.14
2022-12-29T06:49:43.151Z,2.39
2022-12-29T06:52:13.022Z,2.52
2022-12-29T06:54:41.092Z,2.86
2022-12-29T06:57:08.499Z,2.40
2022-12-29T06:59:35.920Z,2.75
2022-12-29T07:02:03.759Z,2.83
2022-12-29T07:04:31.312Z,3.07
2022-12-29T07:06:58.792Z,2.78
2022-12-29T07:09:26.938Z,3.15
2022-12-29T07:11:54.300Z,3.37
2022-12-29T07:14:21.712Z,3.11
2022-12-29T07:16:49.406Z,2.99
2022-12-29T07:19:16.866Z,3.15
2022-12-29T07:21:47.386Z,3.10
2022-12-29T07:24:15.046Z,3.38
2022-12-29T07:26:42.828Z,3.51
2022-12-29T07:29:10.209Z,3.88
2022-12-29T07:31:37.877Z,3.50
2022-12-29T07:34:05.390Z,3.16
2022-12-29T07:36:34.867Z,2.97
2022-12-29T07:39:03.196Z,3.08
2022-12-29T07:41:30.572Z,2.98
2022-12-29T07:43:59.255Z,3.17
2022-12-29T07:46:56.437Z,2.99
2022-12-29T07:49:17.959Z,3.70
2022-12-29T07:51:45.576Z,3.47
2022-12-29T07:54:13.642Z,3.26
2022-12-29T07:56:41.439Z,3.19
2022-12-29T07:59:09.120Z,2.07
2022-12-29T08:01:36.562Z,3.06
2022-12-29T08:04:04.524Z,2.89
2022-12-29T08:06:31.960Z,3.14
2022-12-29T08:09:04.106Z,3.23
2022-12-29T08:11:36.095Z,3.14
2022-12-29T08:14:03.957Z,3.39
2022-12-29T08:16:31.432Z,3.59
2022-12-29T08:18:59.879Z,3.66
2022-12-29T08:21:28.415Z,2.79
2022-12-29T08:23:55.787Z,3.19
2022-12-29T08:26:23.536Z,3.61
2022-12-29T08:28:54.166Z,3.66
2022-12-29T08:31:21.580Z,3.82
2022-12-29T08:33:49.360Z,3.73
2022-12-29T08:36:16.973Z,3.52
2022-12-29T08:38:44.372Z,3.91
2022-12-29T08:41:12.036Z,3.49
2022-12-29T08:43:39.452Z,3.33
2022-12-29T08:46:06.793Z,3.93
2022-12-29T08:48:34.540Z,4.06
2022-12-29T08:51:02.147Z,3.98
2022-12-29T08:53:29.575Z,4.07
2022-12-29T08:56:04.585Z,4.45
2022-12-29T08:58:35.342Z,4.36
2022-12-29T09:01:03.005Z,4.41
2022-12-29T09:06:18.211Z,4.56
2022-12-29T09:08:45.646Z,4.22
2022-12-29T09:11:18.023Z,4.28
2022-12-29T09:13:45.835Z,4.45
2022-12-29T09:16:13.519Z,4.54
2022-12-29T09:18:40.987Z,5.04
2022-12-29T09:21:08.725Z,3.96
2022-12-29T09:23:36.103Z,4.13
2022-12-29T09:26:03.713Z,4.31
2022-12-29T09:28:31.487Z,4.71
2022-12-29T09:30:59.059Z,3.74
2022-12-29T09:33:26.539Z,4.16
2022-12-29T09:35:56.152Z,3.99
2022-12-29T09:38:24.014Z,3.55
2022-12-29T09:41:02.448Z,4.22
2022-12-29T09:43:48.427Z,4.71
2022-12-29T09:46:54.273Z,4.00
2022-12-29T09:49:25.635Z,4.94
2022-12-29T09:51:54.698Z,4.52
2022-12-29T09:54:45.588Z,4.02
2022-12-29T09:57:25.829Z,4.76
2022-12-29T09:59:57.111Z,4.82
2022-12-29T10:02:39.996Z,4.90
2022-12-29T10:05:34.639Z,4.71
2022-12-29T10:08:17.495Z,4.64
2022-12-29T10:10:57.821Z,4.16
2022-12-29T10:13:37.525Z,3.70
2022-12-29T10:16:40.724Z,4.49
2022-12-29T10:19:21.049Z,4.36
2022-12-29T10:22:04.171Z,4.30
2022-12-29T10:24:31.946Z,4.18
2022-12-29T10:26:59.599Z,4.94
2022-12-29T10:29:34.879Z,4.84
2022-12-29T10:32:27.591Z,4.88
2022-12-29T10:34:57.290Z,5.08
2022-12-29T10:37:34.505Z,4.72
2022-12-29T10:40:03.687Z,4.61
2022-12-29T10:42:37.805Z,4.81
2022-12-29T10:45:05.757Z,4.79
2022-12-29T10:47:39.567Z,4.38
2022-12-29T10:50:07.338Z,4.22
2022-12-29T10:52:34.954Z,4.33
2022-12-29T10:55:04.487Z,4.48
2022-12-29T10:57:37.425Z,3.61
2022-12-29T11:00:17.316Z,4.38
2022-12-29T11:03:15.869Z,3.26
2022-12-29T11:05:56.510Z,4.06
2022-12-29T11:08:26.529Z,3.42
2022-12-29T11:11:02.326Z,3.88
2022-12-29T11:13:38.302Z,4.51
2022-12-29T11:16:06.904Z,4.67
2022-12-29T11:18:37.016Z,4.35
2022-12-29T11:21:06.629Z,4.21
2022-12-29T11:23:39.121Z,4.62
2022-12-29T11:26:20.606Z,4.27
2022-12-29T11:29:07.976Z,4.64
2022-12-29T11:31:46.469Z,4.84
2022-12-29T11:34:22.510Z,4.18
2022-12-29T11:36:50.159Z,4.19
2022-12-29T11:39:50.042Z,4.15
2022-12-29T11:42:23.215Z,4.27
2022-12-29T11:44:51.260Z,5.02
2022-12-29T11:47:27.610Z,4.44
2022-12-29T11:49:56.201Z,4.02
2022-12-29T11:52:28.425Z,4.42
2022-12-29T11:54:56.206Z,4.53
2022-12-29T11:57:23.515Z,4.79
2022-12-29T11:59:52.267Z,3.85
2022-12-29T12:02:42.976Z,4.51
2022-12-29T12:05:25.046Z,4.23
2022-12-29T12:07:58.231Z,4.73
2022-12-29T12:10:32.759Z,4.66
2022-12-29T12:13:29.515Z,4.80
2022-12-29T12:16:17.398Z,4.82
2022-12-29T12:18:55.434Z,4.99
2022-12-29T12:21:29.414Z,4.79
2022-12-29T12:24:30.861Z,4.24
2022-12-29T12:27:23.497Z,4.60
2022-12-29T12:30:06.532Z,5.00
2022-12-29T12:32:43.900Z,4.73
2022-12-29T12:35:21.279Z,4.77
2022-12-29T12:38:04.484Z,4.61
2022-12-29T12:40:59.609Z,4.87
2022-12-29T12:43:47.679Z,5.04
2022-12-29T12:46:47.523Z,4.98
2022-12-29T12:49:35.131Z,5.25
2022-12-29T12:52:06.644Z,5.57
2022-12-29T12:55:07.504Z,4.51
2022-12-29T12:58:06.559Z,4.57
2022-12-29T13:00:40.699Z,4.58
2022-12-29T13:03:18.568Z,5.14
2022-12-29T13:05:51.699Z,5.20
2022-12-29T13:08:38.348Z,5.44
2022-12-29T13:11:15.435Z,5.07
2022-12-29T13:13:48.762Z,5.10
2022-12-29T13:16:38.319Z,5.41
2022-12-29T13:19:25.444Z,5.11
2022-12-29T13:22:06.556Z,4.84
2022-12-29T13:24:43.529Z,4.87
2022-12-29T13:27:37.429Z,5.37
2022-12-29T13:30:21.789Z,5.53
2022-12-29T13:32:52.239Z,5.01
2022-12-29T13:35:25.940Z,5.43
2022-12-29T13:38:01.016Z,5.65
2022-12-29T13:40:30.103Z,5.13
2022-12-29T13:42:57.739Z,5.37
2022-12-29T13:45:25.912Z,5.41
2022-12-29T13:48:10.934Z,5.46
2022-12-29T13:50:39.390Z,5.84
2022-12-29T13:53:15.855Z,5.59
2022-12-29T13:55:58.528Z,5.96
2022-12-29T13:58:46.919Z,5.15
2022-12-29T14:01:33.149Z,5.81
2022-12-29T14:04:01.605Z,5.98
2022-12-29T14:06:33.871Z,5.84
2022-12-29T14:09:03.131Z,5.15
2022-12-29T14:11:32.698Z,5.33
2022-12-29T14:14:00.220Z,4.66
2022-12-29T14:16:33.151Z,4.80
2022-12-29T14:19:31.843Z,5.11
2022-12-29T14:22:05.621Z,5.59
2022-12-29T14:24:36.067Z,5.17
2022-12-29T14:27:13.167Z,4.58
2022-12-29T14:29:40.444Z,4.60
2022-12-29T14:32:26.073Z,5.31
2022-12-29T14:34:57.464Z,5.41
2022-12-29T14:37:32.829Z,5.47
2022-12-29T14:40:16.357Z,5.37
2022-12-29T14:42:44.436Z,5.60
2022-12-29T14:45:14.408Z,5.10
2022-12-29T14:47:43.447Z,5.45
2022-12-29T14:50:18.627Z,5.15
2022-12-29T14:52:48.557Z,5.23
2022-12-29T14:55:19.085Z,4.34
2022-12-29T14:57:50.816Z,4.86
2022-12-29T15:00:27.330Z,4.74
2022-12-29T15:03:21.235Z,5.16
2022-12-29T15:06:09.731Z,3.60
2022-12-29T15:08:39.221Z,4.44
2022-12-29T15:11:32.176Z,4.11
2022-12-29T15:13:59.716Z,3.98
2022-12-29T15:16:31.048Z,4.19
2022-12-29T15:18:58.700Z,4.83
2022-12-29T15:21:31.136Z,4.18
2022-12-29T15:23:58.741Z,4.24
2022-12-29T15:26:37.884Z,4.96
2022-12-29T15:29:05.534Z,4.84
2022-12-29T15:31:33.016Z,5.01
2022-12-29T15:34:11.121Z,4.68
2022-12-29T15:36:40.129Z,4.85
2022-12-29T15:39:20.944Z,4.86
2022-12-29T15:42:02.066Z,4.52
2022-12-29T15:44:40.659Z,3.74
2022-12-29T15:47:19.137Z,4.23
2022-12-29T15:49:59.334Z,4.25
2022-12-29T15:52:26.928Z,4.05
2022-12-29T15:54:54.275Z,4.45
2022-12-29T15:57:29.076Z,3.83
2022-12-29T15:59:56.837Z,4.36
2022-12-29T16:02:24.645Z,3.72
2022-12-29T16:07:42.256Z,4.19
2022-12-29T16:10:30.200Z,3.86
2022-12-29T16:13:03.963Z,3.99
2022-12-29T16:15:31.616Z,3.66
2022-12-29T16:17:58.940Z,2.79
2022-12-29T16:20:33.034Z,3.11
2022-12-29T16:23:00.618Z,3.55
2022-12-29T16:25:36.623Z,3.61
2022-12-29T16:28:04.628Z,3.65
2022-12-29T16:30:34.419Z,3.53
2022-12-29T16:33:03.803Z,3.82
2022-12-29T16:35:46.421Z,2.92
2022-12-29T16:38:16.506Z,3.28
2022-12-29T16:40:56.965Z,3.42
2022-12-29T16:43:35.705Z,3.57
2022-12-29T16:46:03.274Z,4.17
2022-12-29T16:48:46.527Z,4.47
2022-12-29T16:51:18.971Z,3.50
2022-12-29T16:53:51.170Z,2.89
2022-12-29T16:56:24.571Z,3.32
2022-12-29T16:59:09.810Z,3.13
2022-12-29T17:01:40.726Z,3.46
2022-12-29T17:04:12.305Z,3.30
2022-12-29T17:06:40.090Z,3.42
2022-12-29T17:09:26.843Z,2.64
2022-12-29T17:12:05.410Z,2.91
2022-12-29T17:14:42.076Z,3.22
2022-12-29T17:17:32.791Z,3.66
2022-12-29T17:20:10.386Z,3.33
2022-12-29T17:22:38.054Z,3.83
2022-12-29T17:25:05.512Z,3.29
2022-12-29T17:27:36.609Z,3.73
2022-12-29T17:30:12.613Z,3.92
2022-12-29T17:32:40.894Z,3.64
2022-12-29T17:35:18.408Z,3.91
2022-12-29T17:37:45.951Z,3.93
2022-12-29T17:40:18.135Z,3.80
2022-12-29T17:42:47.312Z,2.69
2022-12-29T17:45:38.893Z,3.70
2022-12-29T17:48:14.973Z,4.03
2022-12-29T17:50:42.599Z,4.18
2022-12-29T17:53:17.062Z,4.31
2022-12-29T17:55:44.676Z,4.37
2022-12-29T17:58:23.411Z,4.35
2022-12-29T18:00:57.271Z,4.41
2022-12-29T18:03:33.423Z,3.82
2022-12-29T18:06:01.167Z,3.92
2022-12-29T18:08:29.484Z,3.61
2022-12-29T18:10:56.935Z,3.96
2022-12-29T18:13:30.743Z,4.23
2022-12-29T18:16:03.800Z,3.96
2022-12-29T18:18:31.191Z,3.66
2022-12-29T18:20:59.408Z,3.59
2022-12-29T18:23:28.203Z,3.22
2022-12-29T18:25:56.855Z,3.58
2022-12-29T18:28:25.028Z,3.52
2022-12-29T18:30:53.111Z,3.80
2022-12-29T18:33:23.312Z,3.20
2022-12-29T18:35:53.413Z,3.73
2022-12-29T18:38:20.880Z,3.13
2022-12-29T18:40:48.816Z,3.09
2022-12-29T18:43:17.270Z,3.50
2022-12-29T18:45:47.935Z,3.94
2022-12-29T18:48:16.976Z,4.25
2022-12-29T18:50:44.592Z,4.34
2022-12-29T18:53:22.977Z,4.10
2022-12-29T18:55:51.501Z,3.93
2022-12-29T18:58:19.029Z,4.10
2022-12-29T19:00:46.614Z,3.32
2022-12-29T19:03:15.066Z,4.15
2022-12-29T19:05:43.114Z,3.82
2022-12-29T19:08:10.754Z,3.91
2022-12-29T19:10:38.690Z,3.64
2022-12-29T19:13:06.118Z,3.85
2022-12-29T19:15:35.368Z,3.89
2022-12-29T19:20:52.578Z,3.51
2022-12-29T19:23:21.900Z,3.84
2022-12-29T19:25:49.387Z,3.79
2022-12-29T19:28:23.502Z,3.91
2022-12-29T19:30:52.767Z,3.59
2022-12-29T19:33:21.412Z,3.78
2022-12-29T19:35:49.639Z,3.59
2022-12-29T19:38:17.307Z,4.13
2022-12-29T19:40:46.289Z,4.23
2022-12-29T19:43:13.903Z,4.25
2022-12-29T19:45:42.299Z,4.38
2022-12-29T19:48:13.164Z,4.26
2022-12-29T19:50:40.497Z,4.08
2022-12-29T19:53:08.176Z,4.44
2022-12-29T19:55:35.817Z,3.78
2022-12-29T19:58:03.153Z,4.00
2022-12-29T20:00:30.797Z,4.36
2022-12-29T20:02:58.673Z,4.55
2022-12-29T20:05:26.085Z,4.19
2022-12-29T20:07:53.552Z,3.95
2022-12-29T20:10:22.207Z,4.15
2022-12-29T20:12:49.589Z,4.31
2022-12-29T20:15:16.981Z,3.37
2022-12-29T20:20:34.041Z,3.99
2022-12-29T20:23:01.670Z,4.10
2022-12-29T20:25:46.736Z,3.54
2022-12-29T20:28:17.764Z,4.06
2022-12-29T20:30:45.138Z,4.13
2022-12-29T20:33:12.546Z,4.10
2022-12-29T20:35:40.177Z,3.32
2022-12-29T20:38:07.981Z,3.13
2022-12-29T20:40:39.351Z,3.73
2022-12-29T20:43:12.299Z,3.88
2022-12-29T20:45:40.499Z,4.40
2022-12-29T20:48:07.877Z,4.09
2022-12-29T20:50:35.584Z,4.43
2022-12-29T20:53:02.906Z,4.65
2022-12-29T20:55:30.287Z,4.83
2022-12-29T20:58:23.245Z,4.47
2022-12-29T21:00:45.580Z,4.19
2022-12-29T21:03:13.358Z,4.41
2022-12-29T21:05:40.874Z,4.50
2022-12-29T21:08:08.232Z,4.33
2022-12-29T21:10:36.025Z,4.47
2022-12-29T21:13:03.430Z,4.48
2022-12-29T21:15:31.949Z,4.54
2022-12-29T21:17:59.611Z,4.51
2022-12-29T21:20:31.662Z,4.21
2022-12-29T21:23:00.160Z,4.40
2022-12-29T21:25:36.793Z,4.31
2022-12-29T21:28:08.599Z,4.17
2022-12-29T21:30:36.277Z,4.01
2022-12-29T21:33:04.074Z,4.04
2022-12-29T21:35:35.201Z,4.03
2022-12-29T21:38:02.835Z,3.43
2022-12-29T21:40:30.177Z,3.88
2022-12-29T21:42:57.613Z,3.88
2022-12-29T21:45:25.321Z,3.90
2022-12-29T21:48:12.151Z,4.10
2022-12-29T21:51:00.575Z,4.07
2022-12-29T21:53:39.436Z,4.32
2022-12-29T21:56:18.393Z,4.21
2022-12-29T21:59:05.736Z,4.39
2022-12-29T22:01:53.867Z,4.46
2022-12-29T22:04:42.114Z,4.39
2022-12-29T22:07:30.063Z,4.52
2022-12-29T22:10:16.560Z,4.00
2022-12-29T22:13:03.188Z,3.79
2022-12-29T22:15:32.550Z,4.21
2022-12-29T22:18:00.808Z,4.06
2022-12-29T22:20:29.748Z,4.07
2022-12-29T22:22:57.417Z,4.29
2022-12-29T22:25:24.804Z,4.03
2022-12-29T22:27:58.611Z,4.17
2022-12-29T22:30:27.842Z,4.19
2022-12-29T22:32:56.990Z,4.38
2022-12-29T22:35:24.904Z,4.44
2022-12-29T22:37:52.559Z,4.35
2022-12-29T22:40:19.956Z,4.48
2022-12-29T22:42:47.335Z,4.49
2022-12-29T22:45:15.089Z,4.40
2022-12-29T22:47:42.488Z,4.52
2022-12-29T22:50:09.903Z,4.38
2022-12-29T22:52:37.569Z,4.41
2022-12-29T22:55:07.222Z,4.58
2022-12-29T22:57:35.616Z,4.57
2022-12-29T23:00:05.673Z,4.38
2022-12-29T23:02:33.211Z,4.24
2022-12-29T23:05:04.037Z,4.45
2022-12-29T23:07:33.393Z,4.39
2022-12-29T23:10:00.767Z,4.42
2022-12-29T23:12:31.441Z,4.70
2022-12-29T23:14:59.205Z,4.27
2022-12-29T23:17:26.606Z,4.79
2022-12-29T23:19:53.983Z,4.04
2022-12-29T23:22:22.968Z,4.38
2022-12-29T23:24:50.326Z,4.45
2022-12-29T23:27:17.816Z,4.93
2022-12-29T23:29:45.446Z,4.46
2022-12-29T23:32:12.891Z,4.94
2022-12-29T23:34:40.304Z,5.10
2022-12-29T23:37:08.023Z,5.04
2022-12-29T23:39:35.401Z,4.66
2022-12-29T23:42:02.922Z,5.25
2022-12-29T23:44:30.554Z,5.01
2022-12-29T23:46:57.945Z,4.40
2022-12-29T23:49:25.353Z,4.11
2022-12-29T23:51:53.012Z,4.39
2022-12-29T23:54:20.496Z,4.43
2022-12-29T23:56:47.886Z,3.92
2022-12-29T23:59:15.481Z,4.41
